sensor_id;sensor_type;location;lat;lon;timestamp;pressure;altitude;pressure_sealevel;temperature;humidity
62926;BME280;55732;52.248;-0.844;2023-04-01T00:01:24;99028.44;;;9.27;90.58
62926;BME280;55732;52.248;-0.844;2023-04-01T00:03:50;99030.88;;;9.28;90.41
62926;BME280;55732;52.248;-0.844;2023-04-01T00:06:17;99035.80;;;9.28;90.25
62926;BME280;55732;52.248;-0.844;2023-04-01T00:08:43;99038.30;;;9.26;90.19
62926;BME280;55732;52.248;-0.844;2023-04-01T00:11:10;99040.63;;;9.23;90.21
62926;BME280;55732;52.248;-0.844;2023-04-01T00:13:35;99042.59;;;9.22;90.29
62926;BME280;55732;52.248;-0.844;2023-04-01T00:16:01;99042.48;;;9.20;90.15
62926;BME280;55732;52.248;-0.844;2023-04-01T00:18:28;99041.47;;;9.18;90.25
62926;BME280;55732;52.248;-0.844;2023-04-01T00:20:53;99045.17;;;9.17;90.44
62926;BME280;55732;52.248;-0.844;2023-04-01T00:23:20;99048.16;;;9.17;90.48
62926;BME280;55732;52.248;-0.844;2023-04-01T00:25:46;99048.84;;;9.18;90.75
62926;BME280;55732;52.248;-0.844;2023-04-01T00:28:14;99055.63;;;9.20;90.67
62926;BME280;55732;52.248;-0.844;2023-04-01T00:30:40;99055.07;;;9.21;90.67
62926;BME280;55732;52.248;-0.844;2023-04-01T00:33:06;99056.29;;;9.22;90.50
62926;BME280;55732;52.248;-0.844;2023-04-01T00:35:31;99063.30;;;9.22;90.36
62926;BME280;55732;52.248;-0.844;2023-04-01T00:37:58;99067.14;;;9.24;90.26
62926;BME280;55732;52.248;-0.844;2023-04-01T00:40:34;99070.84;;;9.23;90.23
62926;BME280;55732;52.248;-0.844;2023-04-01T00:43:00;99072.27;;;9.22;90.13
62926;BME280;55732;52.248;-0.844;2023-04-01T00:47:54;99073.50;;;9.22;90.19
62926;BME280;55732;52.248;-0.844;2023-04-01T00:50:22;99077.36;;;9.22;90.28
62926;BME280;55732;52.248;-0.844;2023-04-01T00:52:50;99074.73;;;9.21;90.04
62926;BME280;55732;52.248;-0.844;2023-04-01T00:55:16;99078.48;;;9.20;89.81
62926;BME280;55732;52.248;-0.844;2023-04-01T00:57:45;99086.57;;;9.19;89.90
62926;BME280;55732;52.248;-0.844;2023-04-01T01:00:13;99087.84;;;9.17;89.68
62926;BME280;55732;52.248;-0.844;2023-04-01T01:02:41;99088.92;;;9.15;89.85
62926;BME280;55732;52.248;-0.844;2023-04-01T01:05:11;99094.23;;;9.13;89.64
62926;BME280;55732;52.248;-0.844;2023-04-01T01:08:00;99097.60;;;9.11;89.66
62926;BME280;55732;52.248;-0.844;2023-04-01T01:10:35;99098.14;;;9.10;89.69
62926;BME280;55732;52.248;-0.844;2023-04-01T01:13:26;99101.88;;;9.08;89.58
62926;BME280;55732;52.248;-0.844;2023-04-01T01:26:46;99111.45;;;8.95;89.46
62926;BME280;55732;52.248;-0.844;2023-04-01T01:31:55;99122.89;;;8.92;89.55
62926;BME280;55732;52.248;-0.844;2023-04-01T01:37:39;99129.39;;;8.92;89.72
62926;BME280;55732;52.248;-0.844;2023-04-01T01:40:09;99132.72;;;8.92;89.71
62926;BME280;55732;52.248;-0.844;2023-04-01T01:42:39;99134.83;;;8.92;89.49
62926;BME280;55732;52.248;-0.844;2023-04-01T01:45:07;99138.18;;;8.91;89.42
62926;BME280;55732;52.248;-0.844;2023-04-01T01:47:34;99144.54;;;8.89;89.30
62926;BME280;55732;52.248;-0.844;2023-04-01T01:50:01;99146.89;;;8.85;89.40
62926;BME280;55732;52.248;-0.844;2023-04-01T01:52:28;99151.85;;;8.83;89.50
62926;BME280;55732;52.248;-0.844;2023-04-01T01:54:56;99154.85;;;8.82;89.34
62926;BME280;55732;52.248;-0.844;2023-04-01T01:57:34;99149.87;;;8.75;89.37
62926;BME280;55732;52.248;-0.844;2023-04-01T02:00:06;99159.46;;;8.78;89.32
62926;BME280;55732;52.248;-0.844;2023-04-01T02:02:40;99166.69;;;8.77;89.25
62926;BME280;55732;52.248;-0.844;2023-04-01T02:05:15;99173.71;;;8.75;89.31
62926;BME280;55732;52.248;-0.844;2023-04-01T02:07:43;99175.29;;;8.76;89.31
62926;BME280;55732;52.248;-0.844;2023-04-01T02:10:13;99178.42;;;8.78;89.47
62926;BME280;55732;52.248;-0.844;2023-04-01T02:12:39;99179.64;;;8.78;89.43
62926;BME280;55732;52.248;-0.844;2023-04-01T02:15:12;99179.81;;;8.78;89.46
62926;BME280;55732;52.248;-0.844;2023-04-01T02:17:43;99187.02;;;8.78;89.71
62926;BME280;55732;52.248;-0.844;2023-04-01T02:20:13;99194.77;;;8.76;89.73
62926;BME280;55732;52.248;-0.844;2023-04-01T02:22:44;99195.70;;;8.73;89.37
62926;BME280;55732;52.248;-0.844;2023-04-01T02:25:18;99196.30;;;8.69;89.11
62926;BME280;55732;52.248;-0.844;2023-04-01T02:27:45;99203.19;;;8.64;89.00
62926;BME280;55732;52.248;-0.844;2023-04-01T02:30:12;99207.83;;;8.60;88.67
62926;BME280;55732;52.248;-0.844;2023-04-01T02:32:39;99206.83;;;8.58;88.91
62926;BME280;55732;52.248;-0.844;2023-04-01T02:35:07;99213.34;;;8.55;89.03
62926;BME280;55732;52.248;-0.844;2023-04-01T02:37:34;99213.00;;;8.55;88.90
62926;BME280;55732;52.248;-0.844;2023-04-01T02:40:04;99211.46;;;8.52;88.90
62926;BME280;55732;52.248;-0.844;2023-04-01T02:42:33;99215.38;;;8.49;88.96
62926;BME280;55732;52.248;-0.844;2023-04-01T02:44:58;99218.38;;;8.48;89.19
62926;BME280;55732;52.248;-0.844;2023-04-01T02:47:24;99219.06;;;8.49;89.13
62926;BME280;55732;52.248;-0.844;2023-04-01T02:49:50;99218.73;;;8.48;89.11
62926;BME280;55732;52.248;-0.844;2023-04-01T02:52:15;99220.33;;;8.46;89.25
62926;BME280;55732;52.248;-0.844;2023-04-01T02:54:41;99217.36;;;8.46;89.25
62926;BME280;55732;52.248;-0.844;2023-04-01T02:57:06;99220.86;;;8.46;89.50
62926;BME280;55732;52.248;-0.844;2023-04-01T02:59:32;99218.06;;;8.45;89.41
62926;BME280;55732;52.248;-0.844;2023-04-01T03:01:58;99223.52;;;8.44;89.34
62926;BME280;55732;52.248;-0.844;2023-04-01T03:04:23;99228.78;;;8.43;89.33
62926;BME280;55732;52.248;-0.844;2023-04-01T03:06:49;99229.48;;;8.43;89.23
62926;BME280;55732;52.248;-0.844;2023-04-01T03:09:14;99238.25;;;8.44;89.28
62926;BME280;55732;52.248;-0.844;2023-04-01T03:11:41;99237.55;;;8.45;89.25
62926;BME280;55732;52.248;-0.844;2023-04-01T03:14:06;99240.00;;;8.44;89.07
62926;BME280;55732;52.248;-0.844;2023-04-01T03:16:32;99242.27;;;8.44;89.26
62926;BME280;55732;52.248;-0.844;2023-04-01T03:18:58;99245.45;;;8.42;89.15
62926;BME280;55732;52.248;-0.844;2023-04-01T03:21:25;99251.13;;;8.39;89.10
62926;BME280;55732;52.248;-0.844;2023-04-01T03:23:51;99255.73;;;8.35;89.15
62926;BME280;55732;52.248;-0.844;2023-04-01T03:26:17;99257.00;;;8.33;89.20
62926;BME280;55732;52.248;-0.844;2023-04-01T03:28:43;99259.45;;;8.32;89.30
62926;BME280;55732;52.248;-0.844;2023-04-01T03:31:09;99263.13;;;8.31;89.26
62926;BME280;55732;52.248;-0.844;2023-04-01T03:33:35;99261.40;;;8.28;89.02
62926;BME280;55732;52.248;-0.844;2023-04-01T03:36:00;99266.55;;;8.25;89.11
62926;BME280;55732;52.248;-0.844;2023-04-01T03:38:26;99267.09;;;8.23;89.12
62926;BME280;55732;52.248;-0.844;2023-04-01T03:40:51;99265.36;;;8.20;89.07
62926;BME280;55732;52.248;-0.844;2023-04-01T03:43:17;99269.96;;;8.17;88.98
62926;BME280;55732;52.248;-0.844;2023-04-01T03:45:47;99274.70;;;8.15;89.13
62926;BME280;55732;52.248;-0.844;2023-04-01T03:48:13;99274.36;;;8.15;89.35
62926;BME280;55732;52.248;-0.844;2023-04-01T03:50:39;99277.52;;;8.15;89.38
62926;BME280;55732;52.248;-0.844;2023-04-01T03:53:05;99278.75;;;8.14;89.12
62926;BME280;55732;52.248;-0.844;2023-04-01T03:55:31;99282.30;;;8.14;89.05
62926;BME280;55732;52.248;-0.844;2023-04-01T03:57:56;99281.92;;;8.14;89.09
62926;BME280;55732;52.248;-0.844;2023-04-01T04:00:22;99285.62;;;8.14;88.80
62926;BME280;55732;52.248;-0.844;2023-04-01T04:02:47;99287.21;;;8.13;89.04
62926;BME280;55732;52.248;-0.844;2023-04-01T04:05:13;99287.70;;;8.14;89.01
62926;BME280;55732;52.248;-0.844;2023-04-01T04:07:39;99289.80;;;8.15;88.97
62926;BME280;55732;52.248;-0.844;2023-04-01T04:10:05;99291.38;;;8.15;88.97
62926;BME280;55732;52.248;-0.844;2023-04-01T04:12:30;99295.05;;;8.15;89.13
62926;BME280;55732;52.248;-0.844;2023-04-01T04:14:56;99296.45;;;8.15;89.16
62926;BME280;55732;52.248;-0.844;2023-04-01T04:17:21;99297.55;;;8.13;89.21
62926;BME280;55732;52.248;-0.844;2023-04-01T04:19:47;99305.27;;;8.12;89.20
62926;BME280;55732;52.248;-0.844;2023-04-01T04:22:12;99305.65;;;8.09;89.28
62926;BME280;55732;52.248;-0.844;2023-04-01T04:24:38;99307.23;;;8.08;89.32
62926;BME280;55732;52.248;-0.844;2023-04-01T04:27:03;99307.05;;;8.10;89.32
62926;BME280;55732;52.248;-0.844;2023-04-01T04:29:29;99313.35;;;8.10;89.50
62926;BME280;55732;52.248;-0.844;2023-04-01T04:31:55;99320.70;;;8.12;89.31
62926;BME280;55732;52.248;-0.844;2023-04-01T04:34:20;99318.42;;;8.12;89.02
62926;BME280;55732;52.248;-0.844;2023-04-01T04:36:47;99324.05;;;8.10;88.93
62926;BME280;55732;52.248;-0.844;2023-04-01T04:39:13;99327.56;;;8.10;88.96
62926;BME280;55732;52.248;-0.844;2023-04-01T04:41:39;99332.81;;;8.10;89.15
62926;BME280;55732;52.248;-0.844;2023-04-01T04:44:05;99334.74;;;8.10;89.24
62926;BME280;55732;52.248;-0.844;2023-04-01T04:46:30;99331.45;;;8.07;89.03
62926;BME280;55732;52.248;-0.844;2023-04-01T04:48:56;99340.20;;;8.08;88.89
62926;BME280;55732;52.248;-0.844;2023-04-01T04:51:22;99344.41;;;8.07;88.77
62926;BME280;55732;52.248;-0.844;2023-04-01T04:53:48;99347.94;;;8.05;88.80
62926;BME280;55732;52.248;-0.844;2023-04-01T04:56:18;99347.45;;;8.02;88.50
62926;BME280;55732;52.248;-0.844;2023-04-01T04:58:45;99349.60;;;7.98;88.48
62926;BME280;55732;52.248;-0.844;2023-04-01T05:01:13;99353.83;;;7.95;88.68
62926;BME280;55732;52.248;-0.844;2023-04-01T05:03:40;99354.52;;;7.94;88.70
62926;BME280;55732;52.248;-0.844;2023-04-01T05:06:06;99359.80;;;7.94;88.62
62926;BME280;55732;52.248;-0.844;2023-04-01T05:08:35;99364.20;;;7.92;88.61
62926;BME280;55732;52.248;-0.844;2023-04-01T05:11:02;99368.75;;;7.92;88.75
62926;BME280;55732;52.248;-0.844;2023-04-01T05:13:28;99372.77;;;7.92;88.60
62926;BME280;55732;52.248;-0.844;2023-04-01T05:15:54;99374.04;;;7.90;88.57
62926;BME280;55732;52.248;-0.844;2023-04-01T05:18:19;99375.13;;;7.88;88.80
62926;BME280;55732;52.248;-0.844;2023-04-01T05:20:51;99379.86;;;7.87;89.00
62926;BME280;55732;52.248;-0.844;2023-04-01T05:23:17;99381.08;;;7.88;88.98
62926;BME280;55732;52.248;-0.844;2023-04-01T05:25:43;99388.27;;;7.88;88.88
62926;BME280;55732;52.248;-0.844;2023-04-01T05:28:10;99394.92;;;7.87;89.00
62926;BME280;55732;52.248;-0.844;2023-04-01T05:30:35;99395.64;;;7.85;89.00
62926;BME280;55732;52.248;-0.844;2023-04-01T05:33:00;99399.34;;;7.83;89.04
62926;BME280;55732;52.248;-0.844;2023-04-01T05:35:26;99404.98;;;7.79;89.07
62926;BME280;55732;52.248;-0.844;2023-04-01T05:37:51;99401.89;;;7.72;89.13
62926;BME280;55732;52.248;-0.844;2023-04-01T05:40:17;99409.44;;;7.69;89.38
62926;BME280;55732;52.248;-0.844;2023-04-01T05:42:42;99413.85;;;7.68;89.22
62926;BME280;55732;52.248;-0.844;2023-04-01T05:45:08;99410.20;;;7.66;89.36
62926;BME280;55732;52.248;-0.844;2023-04-01T05:47:34;99411.91;;;7.67;89.58
62926;BME280;55732;52.248;-0.844;2023-04-01T05:49:59;99411.73;;;7.68;89.20
62926;BME280;55732;52.248;-0.844;2023-04-01T05:52:25;99414.20;;;7.67;89.30
62926;BME280;55732;52.248;-0.844;2023-04-01T05:54:50;99418.23;;;7.66;89.19
62926;BME280;55732;52.248;-0.844;2023-04-01T05:57:16;99421.77;;;7.66;89.24
62926;BME280;55732;52.248;-0.844;2023-04-01T05:59:41;99427.14;;;7.68;89.39
62926;BME280;55732;52.248;-0.844;2023-04-01T06:02:08;99433.60;;;7.72;89.35
62926;BME280;55732;52.248;-0.844;2023-04-01T06:04:39;99437.62;;;7.75;89.18
62926;BME280;55732;52.248;-0.844;2023-04-01T06:07:12;99437.77;;;7.78;89.30
62926;BME280;55732;52.248;-0.844;2023-04-01T06:09:38;99440.54;;;7.80;89.09
62926;BME280;55732;52.248;-0.844;2023-04-01T06:18:07;99446.82;;;7.84;89.00
62926;BME280;55732;52.248;-0.844;2023-04-01T06:20:40;99454.00;;;7.86;88.85
62926;BME280;55732;52.248;-0.844;2023-04-01T06:26:10;99458.70;;;7.90;88.81
62926;BME280;55732;52.248;-0.844;2023-04-01T06:50:30;99487.95;;;7.91;88.39
62926;BME280;55732;52.248;-0.844;2023-04-01T06:57:55;99497.02;;;7.95;88.34
62926;BME280;55732;52.248;-0.844;2023-04-01T07:00:32;99504.73;;;7.98;88.31
62926;BME280;55732;52.248;-0.844;2023-04-01T07:05:34;99505.69;;;8.08;88.45
62926;BME280;55732;52.248;-0.844;2023-04-01T07:08:04;99511.98;;;8.10;87.97
62926;BME280;55732;52.248;-0.844;2023-04-01T07:13:30;99515.00;;;8.04;87.92
62926;BME280;55732;52.248;-0.844;2023-04-01T07:21:23;99528.15;;;8.03;88.03
62926;BME280;55732;52.248;-0.844;2023-04-01T07:23:51;99532.00;;;8.05;88.00
62926;BME280;55732;52.248;-0.844;2023-04-01T07:26:21;99533.43;;;8.03;87.87
62926;BME280;55732;52.248;-0.844;2023-04-01T07:28:48;99537.30;;;8.02;87.84
62926;BME280;55732;52.248;-0.844;2023-04-01T07:36:55;99543.02;;;8.09;87.89
62926;BME280;55732;52.248;-0.844;2023-04-01T07:42:48;99547.12;;;8.22;87.48
62926;BME280;55732;52.248;-0.844;2023-04-01T07:50:55;99559.08;;;8.42;87.40
62926;BME280;55732;52.248;-0.844;2023-04-01T07:56:10;99567.02;;;8.55;87.23
62926;BME280;55732;52.248;-0.844;2023-04-01T07:58:40;99572.73;;;8.62;87.07
62926;BME280;55732;52.248;-0.844;2023-04-01T08:06:39;99579.56;;;8.82;86.19
62926;BME280;55732;52.248;-0.844;2023-04-01T08:09:52;99580.89;;;8.90;85.89
62926;BME280;55732;52.248;-0.844;2023-04-01T08:13:15;99592.02;;;9.00;85.72
62926;BME280;55732;52.248;-0.844;2023-04-01T08:15:35;99596.53;;;9.06;85.45
62926;BME280;55732;52.248;-0.844;2023-04-01T08:18:11;99601.56;;;9.10;85.62
62926;BME280;55732;52.248;-0.844;2023-04-01T08:20:59;99612.25;;;9.13;85.11
62926;BME280;55732;52.248;-0.844;2023-04-01T08:23:30;99614.01;;;9.12;84.99
62926;BME280;55732;52.248;-0.844;2023-04-01T08:26:02;99616.87;;;9.09;84.78
62926;BME280;55732;52.248;-0.844;2023-04-01T08:28:34;99622.45;;;9.11;85.02
62926;BME280;55732;52.248;-0.844;2023-04-01T08:31:06;99629.65;;;9.11;84.67
62926;BME280;55732;52.248;-0.844;2023-04-01T08:33:33;99628.98;;;9.08;84.53
62926;BME280;55732;52.248;-0.844;2023-04-01T08:36:22;99633.88;;;9.09;84.31
62926;BME280;55732;52.248;-0.844;2023-04-01T08:39:02;99636.16;;;9.10;83.96
62926;BME280;55732;52.248;-0.844;2023-04-01T08:41:48;99642.61;;;9.14;83.81
62926;BME280;55732;52.248;-0.844;2023-04-01T08:47:20;99650.59;;;9.25;83.87
62926;BME280;55732;52.248;-0.844;2023-04-01T08:55:44;99658.90;;;9.51;82.59
62926;BME280;55732;52.248;-0.844;2023-04-01T08:58:34;99661.52;;;9.52;82.55
62926;BME280;55732;52.248;-0.844;2023-04-01T09:01:57;99662.19;;;9.55;81.89
62926;BME280;55732;52.248;-0.844;2023-04-01T09:06:57;99656.43;;;11.23;78.18
62926;BME280;55732;52.248;-0.844;2023-04-01T09:18:21;99666.44;;;14.39;69.39
62926;BME280;55732;52.248;-0.844;2023-04-01T09:35:46;99685.36;;;13.42;68.12
62926;BME280;55732;52.248;-0.844;2023-04-01T09:38:42;99690.66;;;13.08;68.20
62926;BME280;55732;52.248;-0.844;2023-04-01T09:44:11;99695.20;;;12.22;69.20
62926;BME280;55732;52.248;-0.844;2023-04-01T10:00:10;99721.28;;;11.24;72.34
62926;BME280;55732;52.248;-0.844;2023-04-01T10:27:33;99783.48;;;10.44;75.06
62926;BME280;55732;52.248;-0.844;2023-04-01T10:33:15;99790.48;;;10.59;74.85
62926;BME280;55732;52.248;-0.844;2023-04-01T10:50:24;99817.00;;;10.24;75.71
62926;BME280;55732;52.248;-0.844;2023-04-01T10:58:53;99824.17;;;10.08;75.87
62926;BME280;55732;52.248;-0.844;2023-04-01T11:18:28;99840.44;;;9.85;76.75
62926;BME280;55732;52.248;-0.844;2023-04-01T11:24:12;99848.20;;;9.81;76.47
62926;BME280;55732;52.248;-0.844;2023-04-01T11:32:46;99862.33;;;9.77;76.39
62926;BME280;55732;52.248;-0.844;2023-04-01T11:44:25;99880.30;;;9.90;76.25
62926;BME280;55732;52.248;-0.844;2023-04-01T11:55:15;99896.36;;;10.01;76.57
62926;BME280;55732;52.248;-0.844;2023-04-01T12:03:26;99915.50;;;10.25;75.51
62926;BME280;55732;52.248;-0.844;2023-04-01T12:19:26;99933.00;;;10.79;74.38
62926;BME280;55732;52.248;-0.844;2023-04-01T12:33:15;99952.74;;;11.05;73.20
62926;BME280;55732;52.248;-0.844;2023-04-01T12:41:42;99962.80;;;11.04;73.15
62926;BME280;55732;52.248;-0.844;2023-04-01T12:44:23;99969.40;;;11.10;73.00
62926;BME280;55732;52.248;-0.844;2023-04-01T12:49:56;99975.79;;;11.21;72.54
62926;BME280;55732;52.248;-0.844;2023-04-01T12:52:58;99979.20;;;11.17;72.63
62926;BME280;55732;52.248;-0.844;2023-04-01T12:55:38;99984.56;;;11.10;72.50
62926;BME280;55732;52.248;-0.844;2023-04-01T13:03:25;99989.41;;;10.89;72.71
62926;BME280;55732;52.248;-0.844;2023-04-01T13:16:39;100005.45;;;10.73;72.91
62926;BME280;55732;52.248;-0.844;2023-04-01T13:21:58;100012.70;;;10.54;73.09
62926;BME280;55732;52.248;-0.844;2023-04-01T13:32:25;100024.41;;;10.43;73.42
62926;BME280;55732;52.248;-0.844;2023-04-01T13:43:12;100040.52;;;10.34;73.62
62926;BME280;55732;52.248;-0.844;2023-04-01T13:48:49;100049.62;;;10.16;73.57
62926;BME280;55732;52.248;-0.844;2023-04-01T14:39:59;100126.34;;;10.14;72.66
62926;BME280;55732;52.248;-0.844;2023-04-01T14:47:58;100141.38;;;10.00;73.10
62926;BME280;55732;52.248;-0.844;2023-04-01T14:50:28;100143.48;;;10.03;73.00
62926;BME280;55732;52.248;-0.844;2023-04-01T14:53:12;100151.70;;;10.06;72.91
62926;BME280;55732;52.248;-0.844;2023-04-01T14:58:15;100156.80;;;10.08;72.51
62926;BME280;55732;52.248;-0.844;2023-04-01T15:00:56;100156.10;;;10.07;72.52
62926;BME280;55732;52.248;-0.844;2023-04-01T15:09:26;100170.05;;;9.98;72.62
62926;BME280;55732;52.248;-0.844;2023-04-01T15:14:45;100165.20;;;10.16;72.61
62926;BME280;55732;52.248;-0.844;2023-04-01T15:23:00;100176.43;;;10.73;71.84
62926;BME280;55732;52.248;-0.844;2023-04-01T15:31:12;100185.07;;;10.93;70.70
62926;BME280;55732;52.248;-0.844;2023-04-01T15:45:18;100213.04;;;11.15;69.47
62926;BME280;55732;52.248;-0.844;2023-04-01T15:48:06;100211.81;;;11.14;68.67
62926;BME280;55732;52.248;-0.844;2023-04-01T16:07:17;100240.80;;;11.05;67.95
62926;BME280;55732;52.248;-0.844;2023-04-01T16:15:17;100251.76;;;10.99;67.97
62926;BME280;55732;52.248;-0.844;2023-04-01T16:21:02;100259.25;;;10.89;67.55
62926;BME280;55732;52.248;-0.844;2023-04-01T16:26:43;100269.45;;;10.88;67.83
62926;BME280;55732;52.248;-0.844;2023-04-01T16:32:37;100277.18;;;10.94;67.98
62926;BME280;55732;52.248;-0.844;2023-04-01T16:38:00;100287.38;;;10.97;68.23
62926;BME280;55732;52.248;-0.844;2023-04-01T16:43:49;100295.17;;;10.88;68.18
62926;BME280;55732;52.248;-0.844;2023-04-01T16:46:38;100300.50;;;10.83;68.33
62926;BME280;55732;52.248;-0.844;2023-04-01T16:57:26;100318.92;;;10.65;68.53
62926;BME280;55732;52.248;-0.844;2023-04-01T17:00:02;100325.63;;;10.63;68.68
62926;BME280;55732;52.248;-0.844;2023-04-01T17:02:45;100323.02;;;10.58;68.28
62926;BME280;55732;52.248;-0.844;2023-04-01T17:05:12;100329.04;;;10.51;68.49
62926;BME280;55732;52.248;-0.844;2023-04-01T17:08:04;100335.41;;;10.44;68.32
62926;BME280;55732;52.248;-0.844;2023-04-01T17:19:18;100348.17;;;10.24;69.00
62926;BME280;55732;52.248;-0.844;2023-04-01T17:24:33;100359.77;;;10.17;68.97
62926;BME280;55732;52.248;-0.844;2023-04-01T17:27:25;100364.89;;;10.13;69.10
62926;BME280;55732;52.248;-0.844;2023-04-01T17:30:17;100370.52;;;10.11;69.46
62926;BME280;55732;52.248;-0.844;2023-04-01T17:32:58;100376.16;;;10.11;69.58
62926;BME280;55732;52.248;-0.844;2023-04-01T17:43:55;100405.71;;;10.10;69.90
62926;BME280;55732;52.248;-0.844;2023-04-01T17:46:50;100411.69;;;10.06;70.00
62926;BME280;55732;52.248;-0.844;2023-04-01T17:58:14;100439.33;;;9.96;70.64
62926;BME280;55732;52.248;-0.844;2023-04-01T18:11:54;100461.67;;;9.68;71.81
62926;BME280;55732;52.248;-0.844;2023-04-01T18:15:24;100466.42;;;9.63;71.98
62926;BME280;55732;52.248;-0.844;2023-04-01T18:25:44;100485.02;;;9.43;73.49
62926;BME280;55732;52.248;-0.844;2023-04-01T18:28:48;100488.02;;;9.41;73.50
62926;BME280;55732;52.248;-0.844;2023-04-01T18:31:18;100494.16;;;9.40;73.66
62926;BME280;55732;52.248;-0.844;2023-04-01T18:34:07;100504.34;;;9.38;73.76
62926;BME280;55732;52.248;-0.844;2023-04-01T18:36:47;100511.55;;;9.36;73.99
62926;BME280;55732;52.248;-0.844;2023-04-01T18:39:23;100517.67;;;9.33;74.16
62926;BME280;55732;52.248;-0.844;2023-04-01T18:49:55;100544.70;;;9.23;75.21
62926;BME280;55732;52.248;-0.844;2023-04-01T18:52:41;100547.86;;;9.19;75.58
62926;BME280;55732;52.248;-0.844;2023-04-01T18:55:34;100555.76;;;9.17;76.07
62926;BME280;55732;52.248;-0.844;2023-04-01T18:58:14;100560.81;;;9.12;76.33
62926;BME280;55732;52.248;-0.844;2023-04-01T19:00:54;100566.42;;;9.09;76.56
62926;BME280;55732;52.248;-0.844;2023-04-01T19:03:33;100571.70;;;9.06;76.83
62926;BME280;55732;52.248;-0.844;2023-04-01T19:06:07;100576.61;;;9.05;77.36
62926;BME280;55732;52.248;-0.844;2023-04-01T19:08:39;100581.15;;;9.03;77.67
62926;BME280;55732;52.248;-0.844;2023-04-01T19:16:28;100582.45;;;8.84;79.40
62926;BME280;55732;52.248;-0.844;2023-04-01T19:19:05;100588.23;;;8.80;79.41
62926;BME280;55732;52.248;-0.844;2023-04-01T19:21:42;100601.39;;;8.79;79.74
62926;BME280;55732;52.248;-0.844;2023-04-01T19:27:34;100612.89;;;8.66;81.52
62926;BME280;55732;52.248;-0.844;2023-04-01T19:35:58;100633.48;;;8.51;82.78
62926;BME280;55732;52.248;-0.844;2023-04-01T19:38:37;100640.64;;;8.46;82.92
62926;BME280;55732;52.248;-0.844;2023-04-01T19:41:31;100637.91;;;8.36;83.10
62926;BME280;55732;52.248;-0.844;2023-04-01T19:44:17;100651.95;;;8.34;83.26
62926;BME280;55732;52.248;-0.844;2023-04-01T19:50:09;100660.62;;;8.26;83.05
62926;BME280;55732;52.248;-0.844;2023-04-01T19:52:42;100665.88;;;8.27;83.18
62926;BME280;55732;52.248;-0.844;2023-04-01T19:57:46;100672.36;;;8.26;83.17
62926;BME280;55732;52.248;-0.844;2023-04-01T20:05:55;100685.98;;;8.33;83.13
62926;BME280;55732;52.248;-0.844;2023-04-01T20:14:30;100695.53;;;8.28;82.74
62926;BME280;55732;52.248;-0.844;2023-04-01T20:20:03;100707.38;;;8.20;83.23
62926;BME280;55732;52.248;-0.844;2023-04-01T20:25:16;100722.06;;;8.16;83.72
62926;BME280;55732;52.248;-0.844;2023-04-01T20:27:53;100729.77;;;8.15;83.92
62926;BME280;55732;52.248;-0.844;2023-04-01T20:36:23;100744.11;;;8.10;83.91
62926;BME280;55732;52.248;-0.844;2023-04-01T20:39:15;100747.30;;;8.12;83.97
62926;BME280;55732;52.248;-0.844;2023-04-01T20:58:22;100781.62;;;8.09;84.15
62926;BME280;55732;52.248;-0.844;2023-04-01T21:03:45;100794.13;;;8.13;84.30
62926;BME280;55732;52.248;-0.844;2023-04-01T21:15:29;100813.21;;;8.11;84.36
62926;BME280;55732;52.248;-0.844;2023-04-01T21:27:11;100830.88;;;7.95;85.28
62926;BME280;55732;52.248;-0.844;2023-04-01T21:29:58;100833.52;;;7.82;85.95
62926;BME280;55732;52.248;-0.844;2023-04-01T21:40:54;100842.46;;;7.71;87.09
62926;BME280;55732;52.248;-0.844;2023-04-01T21:43:58;100848.27;;;7.72;86.82
62926;BME280;55732;52.248;-0.844;2023-04-01T21:49:26;100854.17;;;7.69;86.70
62926;BME280;55732;52.248;-0.844;2023-04-01T21:55:20;100869.55;;;7.65;86.40
62926;BME280;55732;52.248;-0.844;2023-04-01T22:00:52;100878.98;;;7.63;86.08
62926;BME280;55732;52.248;-0.844;2023-04-01T22:06:12;100885.20;;;7.57;85.76
62926;BME280;55732;52.248;-0.844;2023-04-01T22:09:17;100888.33;;;7.56;85.71
62926;BME280;55732;52.248;-0.844;2023-04-01T22:14:36;100893.15;;;7.50;86.19
62926;BME280;55732;52.248;-0.844;2023-04-01T22:25:35;100919.98;;;7.41;86.94
62926;BME280;55732;52.248;-0.844;2023-04-01T22:28:38;100923.27;;;7.39;87.12
62926;BME280;55732;52.248;-0.844;2023-04-01T22:31:07;100931.84;;;7.38;86.89
62926;BME280;55732;52.248;-0.844;2023-04-01T22:36:13;100942.77;;;7.33;86.20
62926;BME280;55732;52.248;-0.844;2023-04-01T22:38:49;100947.30;;;7.30;86.09
62926;BME280;55732;52.248;-0.844;2023-04-01T22:43:59;100956.67;;;7.25;85.97
62926;BME280;55732;52.248;-0.844;2023-04-01T22:49:43;100960.11;;;7.23;85.60
62926;BME280;55732;52.248;-0.844;2023-04-01T22:52:33;100964.45;;;7.20;85.46
62926;BME280;55732;52.248;-0.844;2023-04-01T22:55:08;100966.84;;;7.16;85.35
62926;BME280;55732;52.248;-0.844;2023-04-01T22:57:39;100968.35;;;7.14;85.35
62926;BME280;55732;52.248;-0.844;2023-04-01T23:00:52;100969.51;;;7.11;85.17
62926;BME280;55732;52.248;-0.844;2023-04-01T23:03:34;100977.36;;;7.09;85.08
62926;BME280;55732;52.248;-0.844;2023-04-01T23:06:04;100983.98;;;7.06;84.77
62926;BME280;55732;52.248;-0.844;2023-04-01T23:23:00;101006.13;;;6.93;85.09
62926;BME280;55732;52.248;-0.844;2023-04-01T23:28:25;101013.77;;;6.91;85.51
62926;BME280;55732;52.248;-0.844;2023-04-01T23:30:54;101020.39;;;6.89;85.58
62926;BME280;55732;52.248;-0.844;2023-04-01T23:35:58;101028.61;;;6.89;85.99
62926;BME280;55732;52.248;-0.844;2023-04-01T23:38:35;101030.90;;;6.90;86.15
62926;BME280;55732;52.248;-0.844;2023-04-01T23:41:03;101037.62;;;6.92;86.01
62926;BME280;55732;52.248;-0.844;2023-04-01T23:43:32;101044.50;;;6.95;86.05
62926;BME280;55732;52.248;-0.844;2023-04-01T23:46:00;101045.23;;;6.98;86.12
62926;BME280;55732;52.248;-0.844;2023-04-01T23:48:32;101044.42;;;7.00;86.28
62926;BME280;55732;52.248;-0.844;2023-04-01T23:51:00;101048.23;;;6.98;86.64
62926;BME280;55732;52.248;-0.844;2023-04-01T23:53:29;101052.20;;;6.95;86.88
62926;BME280;55732;52.248;-0.844;2023-04-01T23:55:55;101058.29;;;6.93;87.05
62926;BME280;55732;52.248;-0.844;2023-04-01T23:58:24;101062.27;;;6.91;87.20
